Time;durP1;ratioP1;P1;durP2;ratioP2;P2;SDS_P1;SDS_P2;PMS_P1;PMS_P2;Temp;Humidity;BMP_temperature;BMP_pressure;BME280_temperature;BME280_humidity;BME280_pressure;Samples;Min_cycle;Max_cycle;Signal;HPM_P1;HPM_P2
2023/10/31 08:40:24;;;;;;;12.55;6.63;;;;;;;20.54;56.40;94869.25;5127503;27;20326;-71
2023/10/31 08:42:49;;;;;;;12.65;5.93;;;;;;;20.91;55.39;94874.19;5127524;27;20177;-71
2023/10/31 08:45:15;;;;;;;9.95;5.97;;;;;;;21.16;55.13;94859.88;5125573;27;20180;-70
2023/10/31 08:47:40;;;;;;;8.77;4.85;;;;;;;21.45;53.45;94855.41;5127936;27;20176;-71
2023/10/31 08:50:11;;;;;;;12.45;6.35;;;;;;;21.51;52.87;94844.69;5127109;27;20169;-70
2023/10/31 08:52:37;;;;;;;15.10;4.80;;;;;;;21.39;53.11;94839.66;5126943;27;20181;-71
2023/10/31 08:55:03;;;;;;;10.27;4.65;;;;;;;21.59;53.55;94852.13;5127330;27;20183;-71
2023/10/31 08:57:29;;;;;;;10.60;5.13;;;;;;;21.58;52.94;94843.28;5127067;27;20597;-70
2023/10/31 08:59:55;;;;;;;11.90;4.65;;;;;;;21.69;52.76;94828.75;5126097;27;20208;-71
2023/10/31 09:02:21;;;;;;;9.75;4.30;;;;;;;21.54;52.63;94841.44;5127309;28;20176;-71
2023/10/31 09:04:46;;;;;;;12.68;5.10;;;;;;;21.34;52.82;94831.69;5127014;27;20173;-71
2023/10/31 09:07:12;;;;;;;9.82;4.75;;;;;;;21.21;53.88;94824.25;5125736;27;20250;-71
2023/10/31 09:09:37;;;;;;;11.90;4.40;;;;;;;21.48;53.64;94808.53;5126550;27;20167;-71
2023/10/31 09:12:03;;;;;;;11.95;4.47;;;;;;;21.46;52.73;94821.41;5133161;27;20163;-71
2023/10/31 09:14:28;;;;;;;7.50;4.40;;;;;;;21.39;52.75;94805.66;5134427;27;20533;-71
2023/10/31 09:16:54;;;;;;;9.70;5.25;;;;;;;21.61;53.02;94809.78;5134215;27;20624;-71
2023/10/31 09:19:19;;;;;;;20.13;4.75;;;;;;;21.65;52.60;94803.56;5126812;27;20196;-71
2023/10/31 09:21:45;;;;;;;12.73;5.25;;;;;;;21.60;52.86;94800.94;5126815;27;20215;-70
2023/10/31 09:24:11;;;;;;;14.32;4.80;;;;;;;21.65;52.88;94792.03;5126772;27;20176;-71
2023/10/31 09:26:37;;;;;;;21.08;9.05;;;;;;;21.74;52.62;94785.81;5126861;28;20255;-71
2023/10/31 09:29:03;;;;;;;11.77;5.22;;;;;;;21.93;52.60;94777.06;5126960;27;20564;-70
2023/10/31 09:31:29;;;;;;;7.78;4.97;;;;;;;21.97;52.03;94776.22;5126466;27;20260;-71
2023/10/31 09:33:54;;;;;;;13.95;5.10;;;;;;;21.89;51.55;94778.69;5126728;27;20620;-70
2023/10/31 09:36:20;;;;;;;11.68;5.35;;;;;;;21.70;51.84;94776.75;5126620;27;20707;-70
2023/10/31 09:38:45;;;;;;;9.45;5.28;;;;;;;21.71;52.45;94753.41;5126662;27;20274;-70
2023/10/31 09:41:12;;;;;;;10.38;5.45;;;;;;;21.96;52.04;94761.22;5126918;27;20179;-70
2023/10/31 09:43:37;;;;;;;10.52;4.97;;;;;;;22.08;51.32;94752.78;5126577;27;20199;-70
2023/10/31 09:46:04;;;;;;;10.20;4.57;;;;;;;22.08;51.31;94755.47;5126631;27;20203;-71
2023/10/31 09:48:31;;;;;;;10.18;5.13;;;;;;;22.10;51.17;94751.44;5127338;27;20198;-71
2023/10/31 09:50:57;;;;;;;8.52;4.80;;;;;;;21.92;51.04;94730.69;5117042;27;20173;-71
2023/10/31 09:53:23;;;;;;;12.60;4.25;;;;;;;22.01;51.12;94746.97;5112214;27;20663;-71
2023/10/31 09:55:50;;;;;;;11.10;4.63;;;;;;;21.95;50.82;94730.13;5112510;27;20216;-71
2023/10/31 09:58:15;;;;;;;11.68;4.97;;;;;;;21.86;51.00;94713.06;5112429;27;20165;-71
2023/10/31 10:00:41;;;;;;;9.35;4.28;;;;;;;21.78;52.02;94721.72;5112261;28;20218;-71
2023/10/31 10:03:10;;;;;;;9.32;4.20;;;;;;;21.58;52.33;94711.19;5131752;27;20592;-71
2023/10/31 10:05:36;;;;;;;6.25;4.00;;;;;;;21.78;52.22;94711.00;5132587;27;20208;-71
2023/10/31 10:08:03;;;;;;;9.63;3.95;;;;;;;21.89;52.01;94709.78;5132511;27;20260;-72
2023/10/31 10:10:29;;;;;;;14.27;4.88;;;;;;;21.78;50.78;94711.00;5132825;27;20249;-71
2023/10/31 10:12:55;;;;;;;11.32;4.70;;;;;;;21.36;51.89;94693.72;5123358;27;20173;-71
2023/10/31 10:15:21;;;;;;;9.95;4.65;;;;;;;21.13;52.75;94689.06;5110606;28;20184;-71
2023/10/31 10:17:51;;;;;;;10.15;4.93;;;;;;;20.96;53.07;94686.78;5112058;28;20169;-71
2023/10/31 10:20:18;;;;;;;5.32;3.85;;;;;;;21.01;54.12;94680.63;5111887;27;20667;-71
2023/10/31 10:22:44;;;;;;;9.50;4.15;;;;;;;21.08;53.31;94665.03;5111484;28;20263;-71
2023/10/31 10:25:20;;;;;;;12.20;4.53;;;;;;;21.14;53.13;94676.47;5111704;28;20180;-71
2023/10/31 10:27:46;;;;;;;10.65;4.78;;;;;;;21.16;53.13;94675.13;5110853;28;20210;-71
2023/10/31 10:30:13;;;;;;;9.25;4.95;;;;;;;21.09;52.38;94672.78;5110739;28;20207;-71
2023/10/31 10:32:38;;;;;;;12.75;4.15;;;;;;;21.10;52.60;94678.94;5092712;28;20165;-71
2023/10/31 10:35:05;;;;;;;6.90;4.05;;;;;;;21.07;52.78;94674.13;5110062;28;20180;-71
2023/10/31 10:37:30;;;;;;;13.73;4.10;;;;;;;21.03;52.90;94662.38;5110014;28;20169;-71
2023/10/31 10:39:59;;;;;;;9.90;4.32;;;;;;;21.01;53.29;94651.97;5109364;28;20589;-71
2023/10/31 10:42:37;;;;;;;8.55;4.63;;;;;;;21.02;53.07;94650.06;5110470;28;20434;-71
2023/10/31 10:45:07;;;;;;;9.93;4.53;;;;;;;20.99;52.69;94632.72;5110443;27;20176;-71
2023/10/31 10:47:34;;;;;;;15.40;4.63;;;;;;;20.92;52.37;94628.78;5110911;28;20246;-71
2023/10/31 10:50:03;;;;;;;13.15;5.07;;;;;;;20.98;52.53;94622.28;5110763;28;20252;-71
2023/10/31 10:52:49;;;;;;;11.00;4.53;;;;;;;20.94;52.55;94624.72;5111314;28;20184;-71
2023/10/31 10:55:24;;;;;;;10.10;5.40;;;;;;;20.88;51.85;94617.81;5111282;28;20639;-71
2023/10/31 10:58:08;;;;;;;10.52;4.20;;;;;;;20.86;49.67;94614.59;5111486;28;20533;-71
2023/10/31 11:00:36;;;;;;;9.02;3.45;;;;;;;20.76;50.89;94619.28;5111158;28;20176;-71
2023/10/31 11:03:03;;;;;;;7.25;4.05;;;;;;;20.68;51.17;94615.28;5110106;28;20269;-70
2023/10/31 11:05:31;;;;;;;7.30;4.55;;;;;;;20.69;50.44;94625.72;5111119;27;20726;-71
2023/10/31 11:07:57;;;;;;;8.48;3.45;;;;;;;20.67;50.54;94611.81;5092954;28;20199;-71
2023/10/31 11:10:23;;;;;;;10.48;4.43;;;;;;;20.78;50.66;94609.06;5111250;28;20616;-71
2023/10/31 11:12:48;;;;;;;11.43;5.05;;;;;;;20.75;50.94;94590.91;5110819;28;20208;-71
2023/10/31 11:15:19;;;;;;;8.32;3.95;;;;;;;20.85;50.62;94596.94;5110072;28;20639;-71
2023/10/31 11:17:48;;;;;;;9.07;4.00;;;;;;;20.82;50.81;94592.19;5108932;27;20176;-71
2023/10/31 11:20:16;;;;;;;6.80;3.45;;;;;;;20.64;48.54;94576.81;5109132;27;20612;-71
2023/10/31 11:22:48;;;;;;;4.25;3.00;;;;;;;20.69;48.06;94580.22;5109577;28;20169;-71
2023/10/31 11:25:23;;;;;;;7.28;3.95;;;;;;;20.73;46.52;94577.00;5109882;28;20173;-70
2023/10/31 11:27:53;;;;;;;4.28;2.80;;;;;;;20.68;47.02;94564.47;5092192;28;20184;-70
2023/10/31 11:30:21;;;;;;;9.02;3.30;;;;;;;20.71;47.77;94566.59;5110310;28;20173;-70
2023/10/31 11:33:01;;;;;;;5.07;2.65;;;;;;;20.62;47.74;94566.38;5119576;27;20177;-70
2023/10/31 11:35:29;;;;;;;6.63;2.85;;;;;;;20.56;47.03;94543.44;5112264;27;20529;-70
2023/10/31 11:38:03;;;;;;;13.20;2.90;;;;;;;20.63;46.07;94554.63;5130939;27;20191;-70
2023/10/31 11:40:29;;;;;;;5.60;2.42;;;;;;;20.58;45.30;94537.81;5089955;28;20177;-70
2023/10/31 11:43:01;;;;;;;7.38;2.78;;;;;;;20.63;46.09;94537.75;5089661;28;20177;-70
2023/10/31 11:45:40;;;;;;;6.40;2.10;;;;;;;20.76;45.05;94544.34;5088391;28;20978;-70
2023/10/31 11:48:06;;;;;;;6.25;2.97;;;;;;;20.69;45.54;94532.09;5077097;28;20737;-70
2023/10/31 11:50:32;;;;;;;5.90;2.75;;;;;;;20.81;44.40;94536.25;5068120;28;20266;-70
2023/10/31 11:53:05;;;;;;;7.85;2.97;;;;;;;20.66;44.51;94521.16;5069202;28;20653;-70
2023/10/31 11:55:36;;;;;;;4.70;2.47;;;;;;;20.76;44.50;94525.63;5069115;28;20257;-70
2023/10/31 11:58:21;;;;;;;6.55;2.53;;;;;;;20.81;43.97;94530.91;5069465;28;20259;-70
2023/10/31 12:00:49;;;;;;;5.05;2.58;;;;;;;20.83;44.52;94523.41;5069296;28;20200;-70
2023/10/31 12:03:17;;;;;;;4.93;2.78;;;;;;;20.87;45.55;94527.91;5069297;28;20200;-70
2023/10/31 12:05:56;;;;;;;12.35;3.13;;;;;;;20.84;44.68;94501.72;5067960;28;20276;-70
2023/10/31 12:08:36;;;;;;;14.20;2.85;;;;;;;20.93;45.22;94505.34;5069279;28;20250;-70
2023/10/31 12:11:22;;;;;;;6.20;2.65;;;;;;;21.01;44.41;94506.63;5069321;28;20166;-70
2023/10/31 12:13:59;;;;;;;10.38;3.00;;;;;;;21.05;44.93;94502.28;5069368;28;20174;-70
2023/10/31 12:16:26;;;;;;;6.95;2.50;;;;;;;21.16;44.22;94509.13;5069219;28;20165;-70
2023/10/31 12:19:05;;;;;;;5.68;2.45;;;;;;;21.16;44.00;94503.78;5068838;28;20182;-70
2023/10/31 12:21:37;;;;;;;11.57;2.95;;;;;;;21.24;44.12;94511.22;5069072;28;20177;-69
2023/10/31 12:24:08;;;;;;;6.90;3.25;;;;;;;21.37;45.07;94504.34;5069136;28;20181;-70
2023/10/31 12:26:35;;;;;;;8.50;3.05;;;;;;;21.55;44.19;94492.88;5069000;28;20162;-70
2023/10/31 12:29:14;;;;;;;4.95;2.92;;;;;;;21.74;43.68;94490.22;5068948;28;20182;-69
2023/10/31 12:31:48;;;;;;;8.38;2.72;;;;;;;21.86;43.36;94490.59;5069029;28;20273;-69
2023/10/31 12:34:18;;;;;;;7.38;3.03;;;;;;;21.90;43.53;94463.97;5069049;28;20551;-70
2023/10/31 12:36:46;;;;;;;7.60;3.00;;;;;;;22.00;43.19;94475.38;5068977;28;20174;-69
2023/10/31 12:39:12;;;;;;;7.10;3.10;;;;;;;21.94;44.01;94471.16;5089839;28;20699;-71
2023/10/31 12:41:39;;;;;;;7.10;2.72;;;;;;;21.85;43.99;94454.16;5109252;28;20169;-70
2023/10/31 12:44:06;;;;;;;6.53;2.55;;;;;;;21.97;44.37;94457.19;5109535;28;20237;-70
2023/10/31 12:46:32;;;;;;;5.93;2.65;;;;;;;21.94;44.45;94444.38;5109643;28;20200;-70
2023/10/31 12:48:58;;;;;;;7.18;3.20;;;;;;;21.85;44.92;94448.78;5109080;28;20177;-70
2023/10/31 12:51:24;;;;;;;10.98;4.43;;;;;;;21.75;45.05;94448.94;5109063;28;20200;-70
2023/10/31 12:53:53;;;;;;;6.72;2.85;;;;;;;21.70;45.39;94457.06;5109578;28;20216;-70
2023/10/31 12:56:42;;;;;;;10.85;3.20;;;;;;;21.58;46.03;94462.84;5108951;28;20173;-70
2023/10/31 12:59:09;;;;;;;8.88;2.95;;;;;;;21.43;46.75;94460.38;5109256;28;20224;-70
2023/10/31 13:01:43;;;;;;;10.05;4.15;;;;;;;21.30;46.87;94461.06;5109142;28;20246;-70
2023/10/31 13:04:09;;;;;;;8.40;3.08;;;;;;;21.21;47.74;94458.22;5109167;28;20222;-70
2023/10/31 13:06:35;;;;;;;7.28;2.90;;;;;;;21.25;47.15;94461.13;5109337;28;20188;-70
2023/10/31 13:09:01;;;;;;;10.07;3.00;;;;;;;21.14;47.91;94443.56;5109224;28;20205;-70
2023/10/31 13:11:30;;;;;;;6.70;2.88;;;;;;;21.17;47.63;94459.06;5108693;28;20177;-70
2023/10/31 13:13:55;;;;;;;6.75;2.63;;;;;;;21.14;48.03;94455.06;5090917;28;20203;-69
2023/10/31 13:16:21;;;;;;;10.27;2.78;;;;;;;21.11;47.45;94455.63;5109497;28;20169;-70
2023/10/31 13:18:46;;;;;;;9.80;3.00;;;;;;;21.07;47.91;94446.59;5109250;28;20193;-70
2023/10/31 13:21:14;;;;;;;6.75;2.90;;;;;;;21.13;47.96;94431.25;5109083;28;20169;-70
2023/10/31 13:23:43;;;;;;;8.18;3.10;;;;;;;21.15;47.94;94434.44;5109151;28;20172;-70
2023/10/31 13:26:09;;;;;;;10.70;3.10;;;;;;;21.10;48.49;94444.13;5111400;28;20265;-70
2023/10/31 13:28:35;;;;;;;4.38;2.70;;;;;;;21.10;48.67;94436.09;5113196;28;20616;-70
2023/10/31 13:31:00;;;;;;;9.52;3.08;;;;;;;21.17;48.40;94437.66;5113002;28;20165;-70
2023/10/31 13:33:26;;;;;;;10.02;3.28;;;;;;;21.24;49.20;94433.56;5112641;27;20181;-70
2023/10/31 13:35:51;;;;;;;14.68;2.70;;;;;;;21.25;48.22;94426.31;5112659;28;20166;-70
2023/10/31 13:38:18;;;;;;;4.10;2.67;;;;;;;21.37;47.70;94437.41;5112090;28;20217;-70
2023/10/31 13:40:43;;;;;;;6.75;2.60;;;;;;;21.36;47.90;94425.88;5112897;28;20226;-70
2023/10/31 13:43:09;;;;;;;9.30;2.83;;;;;;;21.43;48.37;94438.94;5112934;27;20181;-70
2023/10/31 13:45:34;;;;;;;9.90;2.35;;;;;;;21.42;48.47;94429.31;5112692;28;20165;-70
2023/10/31 13:48:00;;;;;;;7.20;2.50;;;;;;;21.45;48.41;94418.00;5112907;27;20260;-70
2023/10/31 13:50:25;;;;;;;7.70;3.58;;;;;;;21.52;47.74;94413.09;5112940;28;20560;-70
2023/10/31 13:52:52;;;;;;;5.95;2.88;;;;;;;21.50;47.96;94403.75;5112856;28;20176;-70
2023/10/31 13:55:18;;;;;;;5.50;2.60;;;;;;;21.52;47.97;94420.34;5112606;28;20171;-70
2023/10/31 13:57:44;;;;;;;8.98;2.60;;;;;;;21.46;48.33;94425.75;5112903;28;20662;-70
2023/10/31 14:00:10;;;;;;;9.85;2.88;;;;;;;21.35;48.47;94427.00;5112190;28;20196;-70
2023/10/31 14:02:36;;;;;;;5.82;3.25;;;;;;;21.30;48.60;94432.41;5112105;27;20185;-70
2023/10/31 14:05:02;;;;;;;4.93;2.75;;;;;;;21.25;48.73;94437.03;5112355;28;20652;-70
2023/10/31 14:07:27;;;;;;;8.23;2.88;;;;;;;21.18;48.54;94428.56;5111968;28;20172;-70
2023/10/31 14:09:53;;;;;;;15.55;3.38;;;;;;;21.15;48.82;94445.97;5112439;28;20705;-70
2023/10/31 14:12:18;;;;;;;15.13;3.30;;;;;;;21.09;48.83;94436.41;5112049;27;20546;-70
2023/10/31 14:14:47;;;;;;;17.85;3.53;;;;;;;20.97;49.19;94426.09;5112036;28;20235;-70
2023/10/31 14:17:13;;;;;;;10.52;3.38;;;;;;;20.93;50.18;94422.38;5112059;27;20725;-70
2023/10/31 14:19:39;;;;;;;11.55;2.88;;;;;;;20.85;50.22;94424.88;5111760;27;20197;-71
2023/10/31 14:22:04;;;;;;;11.50;3.70;;;;;;;20.81;50.70;94423.88;5112136;28;20667;-71
2023/10/31 14:24:30;;;;;;;13.40;3.27;;;;;;;20.66;51.48;94433.69;5110990;28;20409;-71
2023/10/31 14:26:55;;;;;;;13.95;3.72;;;;;;;20.53;51.34;94422.84;5111693;28;20181;-71
2023/10/31 14:29:20;;;;;;;8.98;4.30;;;;;;;20.56;52.05;94428.44;5111895;28;20157;-71
2023/10/31 14:31:46;;;;;;;12.00;3.70;;;;;;;20.55;52.36;94428.72;5111601;27;20169;-70
2023/10/31 14:34:11;;;;;;;17.85;4.35;;;;;;;20.47;52.79;94422.09;5111825;28;20187;-70
2023/10/31 14:36:37;;;;;;;9.25;3.70;;;;;;;20.33;53.26;94413.09;5111747;28;20662;-70
2023/10/31 14:39:03;;;;;;;13.07;4.40;;;;;;;20.23;54.02;94427.38;5109250;28;20431;-70
2023/10/31 14:41:33;;;;;;;11.83;3.87;;;;;;;20.07;52.70;94396.50;5111537;28;20431;-70
2023/10/31 14:43:58;;;;;;;15.90;4.15;;;;;;;20.18;53.03;94424.75;5111426;27;20157;-70
2023/10/31 14:46:24;;;;;;;10.35;3.83;;;;;;;20.09;53.87;94417.59;5111253;28;20172;-70
2023/10/31 14:48:49;;;;;;;18.17;5.20;;;;;;;20.00;54.17;94412.06;5091729;27;20403;-70
2023/10/31 14:51:15;;;;;;;22.95;6.45;;;;;;;19.95;54.21;94409.44;5110861;27;20161;-70
2023/10/31 14:53:40;;;;;;;12.13;4.60;;;;;;;19.89;53.97;94405.25;5111138;28;20664;-70
2023/10/31 14:56:06;;;;;;;15.23;4.57;;;;;;;19.80;53.92;94413.06;5110996;28;20181;-70
2023/10/31 14:58:32;;;;;;;13.02;4.50;;;;;;;19.77;54.44;94410.94;5111039;28;20181;-70
2023/10/31 15:00:57;;;;;;;8.20;3.97;;;;;;;19.74;54.29;94405.34;5110752;28;20252;-71
2023/10/31 15:03:22;;;;;;;23.63;4.70;;;;;;;19.72;54.71;94399.50;5091815;28;20169;-70
2023/10/31 15:05:48;;;;;;;26.00;6.93;;;;;;;19.64;54.93;94402.72;5109692;28;20410;-71
2023/10/31 15:08:13;;;;;;;20.17;5.10;;;;;;;19.57;55.36;94401.19;5110340;28;20173;-71
2023/10/31 15:10:39;;;;;;;23.25;7.32;;;;;;;19.55;55.84;94397.97;5110379;28;20243;-70
2023/10/31 15:13:04;;;;;;;19.85;6.55;;;;;;;19.58;55.26;94402.78;5110860;27;20651;-69
2023/10/31 15:15:30;;;;;;;22.02;6.22;;;;;;;19.49;55.41;94403.63;5109792;28;20897;-69
2023/10/31 15:17:55;;;;;;;21.27;5.30;;;;;;;19.35;55.85;94410.66;5109529;27;20778;-69
2023/10/31 15:20:21;;;;;;;22.95;5.40;;;;;;;19.24;55.53;94407.22;5110290;28;20204;-69
2023/10/31 15:22:46;;;;;;;21.10;8.70;;;;;;;19.10;56.00;94387.56;5110491;27;20172;-71
2023/10/31 15:25:12;;;;;;;25.02;6.93;;;;;;;19.14;55.54;94408.06;5109863;28;20461;-71
2023/10/31 15:27:38;;;;;;;20.65;6.00;;;;;;;19.04;55.75;94381.44;5110611;28;20720;-71
2023/10/31 15:30:06;;;;;;;22.92;6.40;;;;;;;19.11;56.92;94395.28;5110455;27;20169;-69
2023/10/31 15:32:33;;;;;;;20.40;7.35;;;;;;;19.03;56.55;94382.50;5109970;28;20207;-71
2023/10/31 15:34:59;;;;;;;21.83;6.90;;;;;;;18.96;56.52;94378.56;5110341;27;20181;-71
2023/10/31 15:37:24;;;;;;;27.50;6.47;;;;;;;19.02;57.01;94406.81;5110161;28;20177;-71
2023/10/31 15:39:51;;;;;;;32.60;9.60;;;;;;;18.92;57.81;94396.19;5091327;28;20601;-69
2023/10/31 15:42:17;;;;;;;34.47;10.82;;;;;;;18.94;58.05;94408.16;5110347;28;20173;-69
2023/10/31 15:44:42;;;;;;;31.05;11.18;;;;;;;18.86;58.28;94400.72;5110046;28;20195;-69
2023/10/31 15:47:08;;;;;;;36.00;9.05;;;;;;;18.77;58.81;94402.38;5110958;27;20252;-70
2023/10/31 15:49:34;;;;;;;22.30;9.52;;;;;;;18.72;59.08;94397.88;5109431;28;20173;-70
2023/10/31 15:52:00;;;;;;;44.00;11.90;;;;;;;18.61;58.11;94396.28;5110151;28;20165;-70
2023/10/31 15:54:28;;;;;;;45.45;10.68;;;;;;;18.49;59.41;94382.47;5109968;27;20625;-71
2023/10/31 15:56:53;;;;;;;42.55;10.95;;;;;;;18.52;59.30;94397.88;5109853;28;20284;-70
2023/10/31 15:59:19;;;;;;;46.70;11.23;;;;;;;18.47;59.46;94396.06;5108606;28;20747;-70
2023/10/31 16:01:44;;;;;;;31.13;11.30;;;;;;;18.41;59.53;94399.00;5091312;28;20176;-70
2023/10/31 16:04:10;;;;;;;28.33;9.40;;;;;;;18.31;59.39;94385.69;5109927;28;20165;-70
2023/10/31 16:06:35;;;;;;;17.98;7.10;;;;;;;18.35;59.25;94406.19;5109733;28;20302;-70
2023/10/31 16:09:02;;;;;;;49.83;14.18;;;;;;;18.31;58.90;94415.03;5109676;28;20244;-70
2023/10/31 16:11:28;;;;;;;57.22;16.00;;;;;;;18.15;59.33;94424.91;5108697;28;20467;-71
2023/10/31 16:13:54;;;;;;;58.10;19.60;;;;;;;18.04;59.78;94420.63;5108689;28;20415;-71
2023/10/31 16:16:19;;;;;;;48.30;15.98;;;;;;;18.11;60.13;94415.84;5108979;28;20253;-71
2023/10/31 16:18:45;;;;;;;51.83;17.95;;;;;;;18.15;59.81;94427.56;5109097;28;20296;-71
2023/10/31 16:21:21;;;;;;;48.88;20.38;;;;;;;18.18;59.70;94427.00;5107747;28;20173;-71
2023/10/31 16:23:47;;;;;;;74.53;24.60;;;;;;;18.21;59.27;94426.50;5108706;27;20176;-71
2023/10/31 16:26:14;;;;;;;80.07;25.13;;;;;;;18.22;59.17;94428.09;5116492;27;20690;-71
2023/10/31 16:28:40;;;;;;;55.20;21.85;;;;;;;18.24;59.88;94431.28;5129524;27;20173;-71
2023/10/31 16:31:06;;;;;;;67.68;27.65;;;;;;;18.17;59.93;94428.06;5129689;27;20191;-71
2023/10/31 16:33:32;;;;;;;79.00;33.00;;;;;;;18.24;60.05;94435.81;5117348;27;20177;-71
2023/10/31 16:35:57;;;;;;;47.92;22.38;;;;;;;18.18;60.11;94437.66;5109152;28;20177;-71
2023/10/31 16:38:23;;;;;;;40.33;20.10;;;;;;;18.20;59.88;94440.88;5090630;28;20306;-71
2023/10/31 16:40:48;;;;;;;56.28;27.20;;;;;;;18.23;59.74;94434.22;5109472;28;20252;-71
2023/10/31 16:43:15;;;;;;;59.03;27.73;;;;;;;18.20;59.90;94446.19;5109193;28;20180;-71
2023/10/31 16:45:41;;;;;;;59.38;22.27;;;;;;;18.23;60.36;94443.00;5109099;28;20264;-71
2023/10/31 16:48:06;;;;;;;24.13;11.43;;;;;;;18.28;59.57;94447.53;5109552;28;20222;-70
2023/10/31 16:50:32;;;;;;;22.70;8.27;;;;;;;18.30;59.49;94446.19;5122479;28;20168;-70
2023/10/31 16:52:58;;;;;;;22.88;8.57;;;;;;;18.35;59.63;94450.72;5129959;28;20190;-70
2023/10/31 16:55:25;;;;;;;22.13;9.98;;;;;;;18.29;59.84;94446.47;5129660;28;20658;-69
2023/10/31 16:57:50;;;;;;;16.83;7.38;;;;;;;18.25;60.19;94437.41;5129461;28;20198;-71
2023/10/31 17:00:16;;;;;;;12.77;5.90;;;;;;;18.27;59.80;94438.72;5129939;27;20176;-70
2023/10/31 17:02:42;;;;;;;24.85;7.53;;;;;;;18.24;60.16;94447.28;5133832;27;20180;-70
2023/10/31 17:05:08;;;;;;;24.97;7.93;;;;;;;18.16;60.31;94439.03;5133321;27;20405;-71
2023/10/31 17:07:33;;;;;;;18.60;6.05;;;;;;;18.21;60.08;94441.69;5126885;27;20199;-71
2023/10/31 17:09:59;;;;;;;19.48;8.00;;;;;;;18.23;60.95;94429.69;5113613;28;20169;-71
2023/10/31 17:12:24;;;;;;;23.40;7.28;;;;;;;18.27;60.30;94427.28;5113391;28;20181;-71
2023/10/31 17:14:50;;;;;;;22.35;8.30;;;;;;;17.98;61.40;94419.06;5113256;28;20943;-71
2023/10/31 17:17:15;;;;;;;16.95;6.30;;;;;;;18.04;61.47;94436.63;5113280;28;20276;-71
2023/10/31 17:19:41;;;;;;;14.85;6.93;;;;;;;18.14;60.73;94425.16;5113355;28;20493;-72
2023/10/31 17:22:07;;;;;;;25.67;7.25;;;;;;;18.17;60.19;94424.59;5113281;28;20660;-72
2023/10/31 17:24:33;;;;;;;32.05;12.75;;;;;;;18.24;60.83;94425.16;5111893;28;20896;-70
2023/10/31 17:26:59;;;;;;;47.72;25.95;;;;;;;18.27;60.86;94435.25;5112904;28;20882;-70
2023/10/31 17:29:24;;;;;;;60.75;28.73;;;;;;;18.24;60.89;94433.16;5111504;27;20169;-70
2023/10/31 17:31:49;;;;;;;59.25;29.92;;;;;;;18.19;62.04;94443.81;5112460;28;20225;-70
2023/10/31 17:34:15;;;;;;;62.63;31.33;;;;;;;18.06;62.16;94445.16;5112617;28;20474;-71
2023/10/31 17:36:41;;;;;;;60.75;29.63;;;;;;;18.00;62.24;94443.53;5112846;28;20177;-70
2023/10/31 17:39:08;;;;;;;57.92;27.95;;;;;;;17.99;62.87;94452.59;5111024;28;20679;-70
2023/10/31 17:41:34;;;;;;;45.58;21.52;;;;;;;18.00;63.45;94447.00;5112948;28;20176;-70
2023/10/31 17:43:59;;;;;;;44.28;20.30;;;;;;;17.98;62.98;94451.03;5117986;27;20168;-70
2023/10/31 17:46:25;;;;;;;48.40;21.52;;;;;;;17.92;62.88;94449.41;5133003;27;20702;-71
2023/10/31 17:48:50;;;;;;;47.97;20.65;;;;;;;17.87;63.19;94441.41;5115261;27;20528;-71
2023/10/31 17:51:16;;;;;;;52.95;21.00;;;;;;;17.84;63.02;94442.75;5112479;28;20698;-70
2023/10/31 17:53:43;;;;;;;55.13;21.42;;;;;;;17.61;63.22;94413.94;5123563;27;20427;-70
2023/10/31 17:56:08;;;;;;;62.03;19.75;;;;;;;17.72;63.17;94426.25;5117801;27;20189;-70
2023/10/31 17:58:34;;;;;;;57.90;20.23;;;;;;;17.76;63.42;94426.50;5111835;28;20175;-70
2023/10/31 18:00:59;;;;;;;65.50;20.05;;;;;;;17.76;63.60;94418.50;5112016;28;20215;-70
2023/10/31 18:03:25;;;;;;;53.95;22.40;;;;;;;17.75;64.07;94428.34;5111522;28;20169;-70
2023/10/31 18:05:50;;;;;;;42.22;18.10;;;;;;;17.65;63.84;94428.34;5111571;28;20169;-70
2023/10/31 18:08:16;;;;;;;51.53;20.63;;;;;;;17.48;64.91;94409.13;5110223;28;20893;-70
2023/10/31 18:10:41;;;;;;;27.67;13.70;;;;;;;17.55;63.86;94397.19;5111255;27;20227;-70
2023/10/31 18:13:08;;;;;;;29.23;13.23;;;;;;;17.57;63.40;94396.91;5109865;27;20200;-70
2023/10/31 18:15:34;;;;;;;36.83;14.80;;;;;;;17.40;63.76;94380.38;5091507;28;20600;-70
2023/10/31 18:18:00;;;;;;;35.50;14.00;;;;;;;17.55;63.98;94402.50;5088034;27;20418;-68
2023/10/31 18:20:25;;;;;;;27.25;12.45;;;;;;;17.55;63.51;94394.53;5110211;27;20215;-69
2023/10/31 18:22:51;;;;;;;40.72;14.18;;;;;;;17.60;63.80;94402.50;5113493;27;20197;-69
2023/10/31 18:25:17;;;;;;;37.45;17.67;;;;;;;17.53;64.50;94425.94;5110768;27;20408;-69
2023/10/31 18:27:42;;;;;;;37.35;15.88;;;;;;;17.57;64.25;94420.84;5112132;27;20173;-69
2023/10/31 18:30:08;;;;;;;38.85;16.08;;;;;;;17.59;64.26;94414.22;5094499;28;20607;-69
2023/10/31 18:32:34;;;;;;;37.67;14.55;;;;;;;17.53;64.48;94423.25;5109039;28;20165;-70
2023/10/31 18:35:00;;;;;;;47.95;18.33;;;;;;;17.44;64.66;94438.16;5109986;28;20917;-69
2023/10/31 18:37:26;;;;;;;45.45;19.27;;;;;;;17.31;64.72;94428.78;5092005;28;20492;-69
2023/10/31 18:39:51;;;;;;;49.35;18.60;;;;;;;17.23;65.29;94417.88;5109688;28;21174;-69
2023/10/31 18:42:17;;;;;;;28.17;15.35;;;;;;;17.23;65.23;94420.53;5111089;27;20176;-70
2023/10/31 18:44:43;;;;;;;32.25;14.20;;;;;;;17.18;64.90;94413.34;5111211;28;20287;-69
2023/10/31 18:47:09;;;;;;;34.13;15.45;;;;;;;17.13;64.96;94410.66;5108576;27;20177;-69
2023/10/31 18:49:35;;;;;;;35.75;15.45;;;;;;;17.11;65.49;94412.81;5109394;27;20417;-69
2023/10/31 18:52:01;;;;;;;35.60;14.57;;;;;;;17.16;65.54;94417.31;5092278;28;20165;-70
2023/10/31 18:54:27;;;;;;;35.63;12.75;;;;;;;17.15;65.59;94421.03;5109442;27;20183;-69
2023/10/31 18:56:57;;;;;;;44.28;16.42;;;;;;;16.71;66.86;94386.84;5109569;28;20678;-69
2023/10/31 18:59:26;;;;;;;45.95;17.48;;;;;;;16.71;67.46;94386.84;5108489;27;20441;-69
2023/10/31 19:01:58;;;;;;;33.83;14.60;;;;;;;16.81;67.29;94412.69;5109186;27;20173;-69
2023/10/31 19:04:27;;;;;;;37.38;16.05;;;;;;;16.72;67.01;94404.41;5109845;28;20303;-69
2023/10/31 19:06:53;;;;;;;32.30;14.55;;;;;;;16.70;67.62;94411.84;5109698;28;20169;-69
2023/10/31 19:09:19;;;;;;;30.48;12.38;;;;;;;16.67;66.90;94422.22;5090119;28;20165;-70
2023/10/31 19:11:49;;;;;;;46.05;15.35;;;;;;;16.62;67.20;94415.00;5110533;27;20173;-69
2023/10/31 19:14:14;;;;;;;25.60;12.15;;;;;;;16.68;67.42;94418.50;5110825;28;20165;-69
2023/10/31 19:16:40;;;;;;;45.15;20.42;;;;;;;16.49;67.22;94426.88;5109557;28;20184;-69
2023/10/31 19:19:06;;;;;;;157.18;79.07;;;;;;;16.37;67.98;94422.81;5108678;28;20195;-70
2023/10/31 19:21:32;;;;;;;111.35;48.65;;;;;;;16.43;68.57;94432.44;5111695;28;20250;-70
2023/10/31 19:23:58;;;;;;;44.83;19.10;;;;;;;16.41;68.32;94427.38;5109290;27;20204;-70
2023/10/31 19:26:24;;;;;;;42.67;13.75;;;;;;;16.48;67.83;94432.44;5110239;28;20251;-69
2023/10/31 19:28:49;;;;;;;31.60;13.33;;;;;;;16.48;66.64;94425.28;5108367;27;20414;-70
2023/10/31 19:31:17;;;;;;;30.42;12.45;;;;;;;16.49;66.13;94444.66;5108531;28;20419;-69
2023/10/31 19:33:43;;;;;;;23.42;10.88;;;;;;;16.51;66.28;94438.06;5109233;28;20422;-69
2023/10/31 19:36:09;;;;;;;23.73;9.77;;;;;;;16.56;66.12;94442.59;5107916;28;20254;-70
2023/10/31 19:38:35;;;;;;;26.80;13.05;;;;;;;16.64;65.66;94441.31;5090953;28;20703;-69
2023/10/31 19:41:01;;;;;;;26.42;11.27;;;;;;;16.55;65.43;94422.38;5108927;27;20493;-69
2023/10/31 19:43:33;;;;;;;23.70;11.23;;;;;;;16.72;65.46;94438.97;5090338;28;20493;-69
2023/10/31 19:46:02;;;;;;;18.50;9.35;;;;;;;16.82;64.70;94430.25;5107901;27;20263;-69
2023/10/31 19:48:28;;;;;;;21.80;11.32;;;;;;;16.75;64.78;94398.59;5109285;28;20188;-70
2023/10/31 19:50:54;;;;;;;28.48;10.20;;;;;;;16.87;65.07;94406.31;5109902;28;20628;-69
2023/10/31 19:53:20;;;;;;;17.05;7.10;;;;;;;16.86;64.22;94400.22;5110151;28;20187;-70
2023/10/31 19:55:48;;;;;;;18.77;7.43;;;;;;;16.79;64.08;94382.91;5091449;28;20643;-70
2023/10/31 19:58:14;;;;;;;13.95;6.53;;;;;;;16.89;63.87;94393.56;5108421;28;20632;-70
2023/10/31 20:00:40;;;;;;;19.13;9.25;;;;;;;16.87;64.13;94406.31;5107695;27;20189;-70
2023/10/31 20:03:06;;;;;;;18.30;9.23;;;;;;;16.86;64.53;94394.91;5109634;28;20192;-70